sensor_id;sensor_type;location;lat;lon;timestamp;P1;durP1;ratioP1;P2;durP2;ratioP2
24557;SDS011;12726;49.148;8.582;2022-10-23T00:01:22;8.68;;;4.25;;
24557;SDS011;12726;49.148;8.582;2022-10-23T00:04:10;7.97;;;2.88;;
24557;SDS011;12726;49.148;8.582;2022-10-23T00:06:57;6.75;;;2.70;;
24557;SDS011;12726;49.148;8.582;2022-10-23T00:09:43;6.63;;;3.25;;
24557;SDS011;12726;49.148;8.582;2022-10-23T00:12:29;4.97;;;2.40;;
24557;SDS011;12726;49.148;8.582;2022-10-23T00:15:16;2.70;;;2.17;;
24557;SDS011;12726;49.148;8.582;2022-10-23T00:18:03;9.75;;;2.38;;
24557;SDS011;12726;49.148;8.582;2022-10-23T00:20:48;6.75;;;2.28;;
24557;SDS011;12726;49.148;8.582;2022-10-23T00:23:34;4.00;;;2.15;;
24557;SDS011;12726;49.148;8.582;2022-10-23T00:26:19;5.13;;;1.90;;
24557;SDS011;12726;49.148;8.582;2022-10-23T00:29:06;3.78;;;1.85;;
24557;SDS011;12726;49.148;8.582;2022-10-23T00:31:53;4.95;;;2.10;;
24557;SDS011;12726;49.148;8.582;2022-10-23T00:34:38;4.05;;;2.03;;
24557;SDS011;12726;49.148;8.582;2022-10-23T00:37:24;4.68;;;1.73;;
24557;SDS011;12726;49.148;8.582;2022-10-23T00:40:09;3.17;;;1.70;;
24557;SDS011;12726;49.148;8.582;2022-10-23T00:42:55;5.03;;;2.20;;
24557;SDS011;12726;49.148;8.582;2022-10-23T00:45:42;4.55;;;1.98;;
24557;SDS011;12726;49.148;8.582;2022-10-23T00:48:28;4.43;;;2.38;;
24557;SDS011;12726;49.148;8.582;2022-10-23T00:51:13;5.18;;;1.98;;
24557;SDS011;12726;49.148;8.582;2022-10-23T00:53:59;6.63;;;1.80;;
24557;SDS011;12726;49.148;8.582;2022-10-23T00:56:46;3.08;;;1.85;;
24557;SDS011;12726;49.148;8.582;2022-10-23T00:59:31;5.53;;;1.83;;
24557;SDS011;12726;49.148;8.582;2022-10-23T01:02:19;5.30;;;2.00;;
24557;SDS011;12726;49.148;8.582;2022-10-23T01:05:04;3.20;;;1.50;;
24557;SDS011;12726;49.148;8.582;2022-10-23T01:07:53;3.63;;;1.77;;
24557;SDS011;12726;49.148;8.582;2022-10-23T01:10:41;4.53;;;1.90;;
24557;SDS011;12726;49.148;8.582;2022-10-23T01:13:32;5.78;;;2.08;;
24557;SDS011;12726;49.148;8.582;2022-10-23T01:16:25;4.20;;;1.85;;
24557;SDS011;12726;49.148;8.582;2022-10-23T01:19:20;2.90;;;1.60;;
24557;SDS011;12726;49.148;8.582;2022-10-23T01:22:27;9.38;;;2.90;;
24557;SDS011;12726;49.148;8.582;2022-10-23T01:25:28;5.35;;;2.05;;
24557;SDS011;12726;49.148;8.582;2022-10-23T01:28:29;3.00;;;1.50;;
24557;SDS011;12726;49.148;8.582;2022-10-23T01:31:19;3.22;;;1.58;;
24557;SDS011;12726;49.148;8.582;2022-10-23T01:34:11;2.67;;;1.95;;
24557;SDS011;12726;49.148;8.582;2022-10-23T01:36:58;5.43;;;1.55;;
24557;SDS011;12726;49.148;8.582;2022-10-23T01:39:46;5.97;;;1.92;;
24557;SDS011;12726;49.148;8.582;2022-10-23T01:42:36;3.03;;;1.95;;
24557;SDS011;12726;49.148;8.582;2022-10-23T01:45:31;5.90;;;1.95;;
24557;SDS011;12726;49.148;8.582;2022-10-23T01:48:20;4.10;;;2.13;;
24557;SDS011;12726;49.148;8.582;2022-10-23T01:51:11;3.17;;;1.50;;
24557;SDS011;12726;49.148;8.582;2022-10-23T01:53:58;4.40;;;1.90;;
24557;SDS011;12726;49.148;8.582;2022-10-23T01:56:45;4.72;;;2.17;;
24557;SDS011;12726;49.148;8.582;2022-10-23T01:59:34;5.78;;;1.85;;
24557;SDS011;12726;49.148;8.582;2022-10-23T02:02:24;6.78;;;2.40;;
24557;SDS011;12726;49.148;8.582;2022-10-23T02:05:13;2.88;;;1.88;;
24557;SDS011;12726;49.148;8.582;2022-10-23T02:08:01;3.40;;;2.20;;
24557;SDS011;12726;49.148;8.582;2022-10-23T02:10:48;4.57;;;2.30;;
24557;SDS011;12726;49.148;8.582;2022-10-23T02:13:41;3.63;;;2.10;;
24557;SDS011;12726;49.148;8.582;2022-10-23T02:16:30;3.08;;;2.35;;
24557;SDS011;12726;49.148;8.582;2022-10-23T02:19:23;4.88;;;2.08;;
24557;SDS011;12726;49.148;8.582;2022-10-23T02:22:13;4.40;;;1.85;;
24557;SDS011;12726;49.148;8.582;2022-10-23T02:25:04;3.88;;;2.10;;
24557;SDS011;12726;49.148;8.582;2022-10-23T02:27:55;3.67;;;2.30;;
24557;SDS011;12726;49.148;8.582;2022-10-23T02:30:46;2.63;;;2.20;;
24557;SDS011;12726;49.148;8.582;2022-10-23T02:33:33;3.30;;;2.05;;
24557;SDS011;12726;49.148;8.582;2022-10-23T02:36:21;3.30;;;2.10;;
24557;SDS011;12726;49.148;8.582;2022-10-23T02:39:07;4.13;;;2.58;;
24557;SDS011;12726;49.148;8.582;2022-10-23T02:41:54;5.80;;;2.22;;
24557;SDS011;12726;49.148;8.582;2022-10-23T02:44:45;3.08;;;1.98;;
24557;SDS011;12726;49.148;8.582;2022-10-23T02:47:45;3.45;;;1.98;;
24557;SDS011;12726;49.148;8.582;2022-10-23T02:50:39;3.53;;;1.58;;
24557;SDS011;12726;49.148;8.582;2022-10-23T02:53:34;4.00;;;2.05;;
24557;SDS011;12726;49.148;8.582;2022-10-23T02:56:29;3.38;;;2.17;;
24557;SDS011;12726;49.148;8.582;2022-10-23T02:59:25;3.28;;;2.10;;
24557;SDS011;12726;49.148;8.582;2022-10-23T03:02:16;3.88;;;1.77;;
24557;SDS011;12726;49.148;8.582;2022-10-23T03:05:06;5.00;;;1.88;;
24557;SDS011;12726;49.148;8.582;2022-10-23T03:07:54;5.68;;;2.17;;
24557;SDS011;12726;49.148;8.582;2022-10-23T03:10:41;4.72;;;2.22;;
24557;SDS011;12726;49.148;8.582;2022-10-23T03:13:26;5.50;;;1.65;;
24557;SDS011;12726;49.148;8.582;2022-10-23T03:16:12;8.18;;;2.40;;
24557;SDS011;12726;49.148;8.582;2022-10-23T03:18:57;5.35;;;2.50;;
24557;SDS011;12726;49.148;8.582;2022-10-23T03:21:42;3.83;;;2.28;;
24557;SDS011;12726;49.148;8.582;2022-10-23T03:24:28;6.75;;;2.33;;
24557;SDS011;12726;49.148;8.582;2022-10-23T03:27:14;4.35;;;1.90;;
24557;SDS011;12726;49.148;8.582;2022-10-23T03:30:00;5.13;;;2.00;;
24557;SDS011;12726;49.148;8.582;2022-10-23T03:32:45;4.53;;;1.90;;
24557;SDS011;12726;49.148;8.582;2022-10-23T03:35:31;5.63;;;2.30;;
24557;SDS011;12726;49.148;8.582;2022-10-23T03:38:16;3.72;;;2.10;;
24557;SDS011;12726;49.148;8.582;2022-10-23T03:41:01;3.75;;;2.50;;
24557;SDS011;12726;49.148;8.582;2022-10-23T03:43:48;3.80;;;2.20;;
24557;SDS011;12726;49.148;8.582;2022-10-23T03:46:33;5.50;;;2.30;;
24557;SDS011;12726;49.148;8.582;2022-10-23T03:49:19;3.42;;;2.20;;
24557;SDS011;12726;49.148;8.582;2022-10-23T03:52:04;5.13;;;2.20;;
24557;SDS011;12726;49.148;8.582;2022-10-23T03:54:50;4.90;;;2.10;;
24557;SDS011;12726;49.148;8.582;2022-10-23T03:57:36;4.90;;;2.10;;
24557;SDS011;12726;49.148;8.582;2022-10-23T04:00:22;4.80;;;2.30;;
24557;SDS011;12726;49.148;8.582;2022-10-23T04:03:07;6.45;;;2.20;;
24557;SDS011;12726;49.148;8.582;2022-10-23T04:05:53;2.63;;;2.28;;
24557;SDS011;12726;49.148;8.582;2022-10-23T04:08:38;3.95;;;3.10;;
24557;SDS011;12726;49.148;8.582;2022-10-23T04:11:24;3.42;;;2.58;;
24557;SDS011;12726;49.148;8.582;2022-10-23T04:14:10;6.97;;;2.63;;
24557;SDS011;12726;49.148;8.582;2022-10-23T04:16:57;6.00;;;2.75;;
24557;SDS011;12726;49.148;8.582;2022-10-23T04:19:43;6.18;;;2.40;;
24557;SDS011;12726;49.148;8.582;2022-10-23T04:22:28;7.47;;;2.70;;
24557;SDS011;12726;49.148;8.582;2022-10-23T04:25:13;5.38;;;2.78;;
24557;SDS011;12726;49.148;8.582;2022-10-23T04:27:59;4.78;;;2.10;;
24557;SDS011;12726;49.148;8.582;2022-10-23T04:30:44;4.50;;;2.00;;
24557;SDS011;12726;49.148;8.582;2022-10-23T04:33:31;3.72;;;2.42;;
24557;SDS011;12726;49.148;8.582;2022-10-23T04:36:16;3.42;;;2.80;;
24557;SDS011;12726;49.148;8.582;2022-10-23T04:39:02;5.03;;;2.40;;
24557;SDS011;12726;49.148;8.582;2022-10-23T04:41:47;2.92;;;1.80;;
24557;SDS011;12726;49.148;8.582;2022-10-23T04:44:32;2.95;;;2.10;;
24557;SDS011;12726;49.148;8.582;2022-10-23T04:47:18;3.28;;;2.28;;
24557;SDS011;12726;49.148;8.582;2022-10-23T04:50:05;5.07;;;2.42;;
24557;SDS011;12726;49.148;8.582;2022-10-23T04:52:52;2.80;;;2.30;;
24557;SDS011;12726;49.148;8.582;2022-10-23T04:55:38;9.13;;;2.53;;
24557;SDS011;12726;49.148;8.582;2022-10-23T04:58:24;6.15;;;2.75;;
24557;SDS011;12726;49.148;8.582;2022-10-23T05:01:10;5.25;;;2.10;;
24557;SDS011;12726;49.148;8.582;2022-10-23T05:03:56;3.85;;;2.40;;
24557;SDS011;12726;49.148;8.582;2022-10-23T05:06:42;5.65;;;2.38;;
24557;SDS011;12726;49.148;8.582;2022-10-23T05:09:28;4.50;;;2.30;;
24557;SDS011;12726;49.148;8.582;2022-10-23T05:12:14;3.83;;;2.17;;
24557;SDS011;12726;49.148;8.582;2022-10-23T05:14:59;6.88;;;2.40;;
24557;SDS011;12726;49.148;8.582;2022-10-23T05:17:45;3.30;;;2.20;;
24557;SDS011;12726;49.148;8.582;2022-10-23T05:20:33;5.15;;;2.35;;
24557;SDS011;12726;49.148;8.582;2022-10-23T05:23:22;3.97;;;2.30;;
24557;SDS011;12726;49.148;8.582;2022-10-23T05:26:08;7.50;;;2.90;;
24557;SDS011;12726;49.148;8.582;2022-10-23T05:28:54;5.95;;;2.85;;
24557;SDS011;12726;49.148;8.582;2022-10-23T05:31:39;3.55;;;2.42;;
24557;SDS011;12726;49.148;8.582;2022-10-23T05:34:25;4.70;;;2.45;;
24557;SDS011;12726;49.148;8.582;2022-10-23T05:37:13;3.22;;;1.90;;
24557;SDS011;12726;49.148;8.582;2022-10-23T05:40:01;2.70;;;2.13;;
24557;SDS011;12726;49.148;8.582;2022-10-23T05:42:47;3.60;;;2.10;;
24557;SDS011;12726;49.148;8.582;2022-10-23T05:45:32;4.95;;;2.03;;
24557;SDS011;12726;49.148;8.582;2022-10-23T05:48:17;5.43;;;2.00;;
24557;SDS011;12726;49.148;8.582;2022-10-23T05:51:03;6.35;;;2.03;;
24557;SDS011;12726;49.148;8.582;2022-10-23T05:53:50;5.13;;;1.63;;
24557;SDS011;12726;49.148;8.582;2022-10-23T05:56:38;6.43;;;2.80;;
24557;SDS011;12726;49.148;8.582;2022-10-23T05:59:24;5.10;;;2.90;;
24557;SDS011;12726;49.148;8.582;2022-10-23T06:02:09;6.22;;;2.50;;
24557;SDS011;12726;49.148;8.582;2022-10-23T06:04:55;3.50;;;2.60;;
24557;SDS011;12726;49.148;8.582;2022-10-23T06:07:40;3.33;;;2.03;;
24557;SDS011;12726;49.148;8.582;2022-10-23T06:10:26;5.63;;;2.15;;
24557;SDS011;12726;49.148;8.582;2022-10-23T06:13:13;5.55;;;1.85;;
24557;SDS011;12726;49.148;8.582;2022-10-23T06:15:58;2.72;;;1.80;;
24557;SDS011;12726;49.148;8.582;2022-10-23T06:18:44;3.78;;;1.90;;
24557;SDS011;12726;49.148;8.582;2022-10-23T06:21:30;3.88;;;1.90;;
24557;SDS011;12726;49.148;8.582;2022-10-23T06:24:15;3.88;;;1.90;;
24557;SDS011;12726;49.148;8.582;2022-10-23T06:27:01;3.83;;;2.08;;
24557;SDS011;12726;49.148;8.582;2022-10-23T06:29:47;4.90;;;1.70;;
24557;SDS011;12726;49.148;8.582;2022-10-23T06:32:33;5.30;;;1.65;;
24557;SDS011;12726;49.148;8.582;2022-10-23T06:35:18;2.95;;;1.70;;
24557;SDS011;12726;49.148;8.582;2022-10-23T06:38:04;2.05;;;1.30;;
24557;SDS011;12726;49.148;8.582;2022-10-23T06:40:51;2.63;;;1.60;;
24557;SDS011;12726;49.148;8.582;2022-10-23T06:43:36;4.13;;;1.58;;
24557;SDS011;12726;49.148;8.582;2022-10-23T06:46:23;2.55;;;1.38;;
24557;SDS011;12726;49.148;8.582;2022-10-23T06:49:09;2.47;;;1.40;;
24557;SDS011;12726;49.148;8.582;2022-10-23T06:51:54;3.45;;;1.95;;
24557;SDS011;12726;49.148;8.582;2022-10-23T06:54:40;2.13;;;1.70;;
24557;SDS011;12726;49.148;8.582;2022-10-23T06:57:25;4.63;;;1.70;;
24557;SDS011;12726;49.148;8.582;2022-10-23T07:00:11;3.80;;;1.50;;
24557;SDS011;12726;49.148;8.582;2022-10-23T07:02:58;5.45;;;1.70;;
24557;SDS011;12726;49.148;8.582;2022-10-23T07:05:44;2.38;;;1.40;;
24557;SDS011;12726;49.148;8.582;2022-10-23T07:08:29;2.67;;;1.52;;
24557;SDS011;12726;49.148;8.582;2022-10-23T07:11:15;8.63;;;1.90;;
24557;SDS011;12726;49.148;8.582;2022-10-23T07:14:00;2.63;;;1.30;;
24557;SDS011;12726;49.148;8.582;2022-10-23T07:16:46;4.93;;;1.70;;
24557;SDS011;12726;49.148;8.582;2022-10-23T07:19:33;3.47;;;2.08;;
24557;SDS011;12726;49.148;8.582;2022-10-23T07:22:18;4.40;;;1.80;;
24557;SDS011;12726;49.148;8.582;2022-10-23T07:25:04;2.10;;;1.55;;
24557;SDS011;12726;49.148;8.582;2022-10-23T07:27:50;3.80;;;2.28;;
24557;SDS011;12726;49.148;8.582;2022-10-23T07:30:37;2.35;;;1.63;;
24557;SDS011;12726;49.148;8.582;2022-10-23T07:33:23;4.63;;;2.17;;
24557;SDS011;12726;49.148;8.582;2022-10-23T07:36:10;3.85;;;1.77;;
24557;SDS011;12726;49.148;8.582;2022-10-23T07:38:55;4.82;;;1.98;;
24557;SDS011;12726;49.148;8.582;2022-10-23T07:41:41;1.80;;;1.67;;
24557;SDS011;12726;49.148;8.582;2022-10-23T07:44:26;5.28;;;1.80;;
24557;SDS011;12726;49.148;8.582;2022-10-23T07:47:12;3.80;;;2.30;;
24557;SDS011;12726;49.148;8.582;2022-10-23T07:49:57;4.22;;;1.75;;
24557;SDS011;12726;49.148;8.582;2022-10-23T07:52:44;7.70;;;2.05;;
24557;SDS011;12726;49.148;8.582;2022-10-23T07:55:30;2.88;;;1.60;;
24557;SDS011;12726;49.148;8.582;2022-10-23T07:58:15;4.32;;;1.55;;
24557;SDS011;12726;49.148;8.582;2022-10-23T08:01:00;4.88;;;1.40;;
24557;SDS011;12726;49.148;8.582;2022-10-23T08:03:47;3.58;;;1.98;;
24557;SDS011;12726;49.148;8.582;2022-10-23T08:06:33;4.32;;;1.88;;
24557;SDS011;12726;49.148;8.582;2022-10-23T08:09:20;4.20;;;1.40;;
24557;SDS011;12726;49.148;8.582;2022-10-23T08:12:06;2.15;;;1.40;;
24557;SDS011;12726;49.148;8.582;2022-10-23T08:14:51;2.72;;;1.48;;
24557;SDS011;12726;49.148;8.582;2022-10-23T08:17:36;2.92;;;1.30;;
24557;SDS011;12726;49.148;8.582;2022-10-23T08:20:22;5.18;;;1.13;;
24557;SDS011;12726;49.148;8.582;2022-10-23T08:23:07;2.58;;;1.10;;
24557;SDS011;12726;49.148;8.582;2022-10-23T08:25:57;1.95;;;1.15;;
24557;SDS011;12726;49.148;8.582;2022-10-23T08:28:42;2.85;;;1.50;;
24557;SDS011;12726;49.148;8.582;2022-10-23T08:31:28;6.20;;;1.30;;
24557;SDS011;12726;49.148;8.582;2022-10-23T08:34:13;2.47;;;1.00;;
24557;SDS011;12726;49.148;8.582;2022-10-23T08:36:59;2.97;;;1.00;;
24557;SDS011;12726;49.148;8.582;2022-10-23T08:39:44;1.70;;;1.10;;
24557;SDS011;12726;49.148;8.582;2022-10-23T08:42:32;3.03;;;0.98;;
24557;SDS011;12726;49.148;8.582;2022-10-23T08:45:25;2.72;;;0.95;;
24557;SDS011;12726;49.148;8.582;2022-10-23T08:48:15;4.93;;;1.10;;
24557;SDS011;12726;49.148;8.582;2022-10-23T08:51:06;4.93;;;1.10;;
24557;SDS011;12726;49.148;8.582;2022-10-23T08:53:58;2.47;;;1.23;;
24557;SDS011;12726;49.148;8.582;2022-10-23T08:56:51;1.50;;;0.90;;
24557;SDS011;12726;49.148;8.582;2022-10-23T08:59:44;2.90;;;1.00;;
24557;SDS011;12726;49.148;8.582;2022-10-23T09:02:32;4.57;;;1.08;;
24557;SDS011;12726;49.148;8.582;2022-10-23T09:05:24;2.00;;;1.00;;
24557;SDS011;12726;49.148;8.582;2022-10-23T09:08:17;4.90;;;1.23;;
24557;SDS011;12726;49.148;8.582;2022-10-23T09:11:14;2.35;;;0.90;;
24557;SDS011;12726;49.148;8.582;2022-10-23T09:14:21;3.10;;;1.20;;
24557;SDS011;12726;49.148;8.582;2022-10-23T09:17:22;1.60;;;0.80;;
24557;SDS011;12726;49.148;8.582;2022-10-23T09:20:13;2.13;;;0.95;;
24557;SDS011;12726;49.148;8.582;2022-10-23T09:23:04;3.13;;;1.00;;
24557;SDS011;12726;49.148;8.582;2022-10-23T09:25:56;2.47;;;1.10;;
24557;SDS011;12726;49.148;8.582;2022-10-23T09:28:46;2.30;;;1.27;;
24557;SDS011;12726;49.148;8.582;2022-10-23T09:31:32;1.25;;;0.95;;
24557;SDS011;12726;49.148;8.582;2022-10-23T09:34:20;1.20;;;1.00;;
24557;SDS011;12726;49.148;8.582;2022-10-23T09:37:16;3.88;;;1.73;;
24557;SDS011;12726;49.148;8.582;2022-10-23T09:40:14;2.63;;;1.25;;
24557;SDS011;12726;49.148;8.582;2022-10-23T09:43:03;1.60;;;1.10;;
24557;SDS011;12726;49.148;8.582;2022-10-23T09:45:58;6.32;;;1.27;;
24557;SDS011;12726;49.148;8.582;2022-10-23T09:48:45;1.05;;;0.60;;
24557;SDS011;12726;49.148;8.582;2022-10-23T09:51:48;1.42;;;1.00;;
24557;SDS011;12726;49.148;8.582;2022-10-23T09:54:37;2.10;;;0.80;;
24557;SDS011;12726;49.148;8.582;2022-10-23T09:57:28;4.68;;;1.35;;
24557;SDS011;12726;49.148;8.582;2022-10-23T10:00:17;2.55;;;1.23;;
24557;SDS011;12726;49.148;8.582;2022-10-23T10:03:04;2.55;;;1.20;;
24557;SDS011;12726;49.148;8.582;2022-10-23T10:05:58;4.20;;;0.95;;
24557;SDS011;12726;49.148;8.582;2022-10-23T10:08:48;1.25;;;0.90;;
24557;SDS011;12726;49.148;8.582;2022-10-23T10:11:36;1.15;;;0.70;;
24557;SDS011;12726;49.148;8.582;2022-10-23T10:17:29;1.08;;;0.73;;
24557;SDS011;12726;49.148;8.582;2022-10-23T10:23:43;1.15;;;0.82;;
24557;SDS011;12726;49.148;8.582;2022-10-23T10:26:36;1.95;;;0.95;;
24557;SDS011;12726;49.148;8.582;2022-10-23T10:29:29;3.22;;;1.02;;
24557;SDS011;12726;49.148;8.582;2022-10-23T10:32:30;2.60;;;0.93;;
24557;SDS011;12726;49.148;8.582;2022-10-23T10:35:36;4.00;;;1.60;;
24557;SDS011;12726;49.148;8.582;2022-10-23T10:38:36;1.27;;;0.70;;
24557;SDS011;12726;49.148;8.582;2022-10-23T10:41:31;1.67;;;0.90;;
24557;SDS011;12726;49.148;8.582;2022-10-23T10:47:38;6.13;;;0.90;;
24557;SDS011;12726;49.148;8.582;2022-10-23T10:50:36;0.88;;;0.80;;
24557;SDS011;12726;49.148;8.582;2022-10-23T10:53:30;4.50;;;0.82;;
24557;SDS011;12726;49.148;8.582;2022-10-23T10:56:26;1.67;;;0.93;;
24557;SDS011;12726;49.148;8.582;2022-10-23T10:59:19;3.30;;;0.57;;
24557;SDS011;12726;49.148;8.582;2022-10-23T11:02:12;1.85;;;0.98;;
24557;SDS011;12726;49.148;8.582;2022-10-23T11:05:10;1.98;;;0.80;;
24557;SDS011;12726;49.148;8.582;2022-10-23T11:08:03;2.97;;;0.85;;
24557;SDS011;12726;49.148;8.582;2022-10-23T11:10:52;1.30;;;0.88;;
24557;SDS011;12726;49.148;8.582;2022-10-23T11:13:43;1.92;;;0.60;;
24557;SDS011;12726;49.148;8.582;2022-10-23T11:16:30;1.90;;;0.60;;
24557;SDS011;12726;49.148;8.582;2022-10-23T11:19:19;2.90;;;0.73;;
24557;SDS011;12726;49.148;8.582;2022-10-23T11:22:09;0.60;;;0.50;;
24557;SDS011;12726;49.148;8.582;2022-10-23T11:25:11;1.08;;;0.85;;
24557;SDS011;12726;49.148;8.582;2022-10-23T11:28:17;1.03;;;0.70;;
24557;SDS011;12726;49.148;8.582;2022-10-23T11:31:14;1.42;;;0.70;;
24557;SDS011;12726;49.148;8.582;2022-10-23T11:34:08;3.53;;;0.60;;
24557;SDS011;12726;49.148;8.582;2022-10-23T11:37:07;1.05;;;0.70;;
24557;SDS011;12726;49.148;8.582;2022-10-23T11:39:56;1.23;;;0.77;;
24557;SDS011;12726;49.148;8.582;2022-10-23T11:42:45;2.60;;;1.00;;
24557;SDS011;12726;49.148;8.582;2022-10-23T11:45:32;1.63;;;0.95;;
24557;SDS011;12726;49.148;8.582;2022-10-23T11:48:21;0.88;;;0.50;;
24557;SDS011;12726;49.148;8.582;2022-10-23T11:54:20;3.63;;;0.80;;
24557;SDS011;12726;49.148;8.582;2022-10-23T11:57:10;1.83;;;0.70;;
24557;SDS011;12726;49.148;8.582;2022-10-23T11:59:58;3.95;;;0.60;;
24557;SDS011;12726;49.148;8.582;2022-10-23T12:02:44;0.75;;;0.50;;
24557;SDS011;12726;49.148;8.582;2022-10-23T12:08:18;2.17;;;0.77;;
24557;SDS011;12726;49.148;8.582;2022-10-23T12:14:26;3.35;;;0.70;;
24557;SDS011;12726;49.148;8.582;2022-10-23T12:17:28;1.27;;;0.80;;
24557;SDS011;12726;49.148;8.582;2022-10-23T12:20:26;2.30;;;0.63;;
24557;SDS011;12726;49.148;8.582;2022-10-23T12:26:31;4.40;;;1.00;;
24557;SDS011;12726;49.148;8.582;2022-10-23T12:29:40;1.20;;;0.73;;
24557;SDS011;12726;49.148;8.582;2022-10-23T12:39:01;2.15;;;0.50;;
24557;SDS011;12726;49.148;8.582;2022-10-23T12:41:46;1.75;;;0.70;;
24557;SDS011;12726;49.148;8.582;2022-10-23T12:44:32;2.60;;;0.70;;
24557;SDS011;12726;49.148;8.582;2022-10-23T12:47:17;7.78;;;0.85;;
24557;SDS011;12726;49.148;8.582;2022-10-23T12:50:13;1.40;;;0.50;;
24557;SDS011;12726;49.148;8.582;2022-10-23T12:53:02;1.50;;;0.63;;
24557;SDS011;12726;49.148;8.582;2022-10-23T12:55:55;2.50;;;0.75;;
24557;SDS011;12726;49.148;8.582;2022-10-23T12:58:44;1.55;;;0.57;;
24557;SDS011;12726;49.148;8.582;2022-10-23T13:01:33;0.88;;;0.52;;
24557;SDS011;12726;49.148;8.582;2022-10-23T13:04:24;1.85;;;0.60;;
24557;SDS011;12726;49.148;8.582;2022-10-23T13:07:13;2.05;;;1.05;;
24557;SDS011;12726;49.148;8.582;2022-10-23T13:09:58;1.80;;;0.68;;
24557;SDS011;12726;49.148;8.582;2022-10-23T13:12:52;0.68;;;0.68;;
24557;SDS011;12726;49.148;8.582;2022-10-23T13:15:40;3.13;;;0.45;;
24557;SDS011;12726;49.148;8.582;2022-10-23T13:18:26;1.27;;;0.68;;
24557;SDS011;12726;49.148;8.582;2022-10-23T13:21:14;0.77;;;0.50;;
24557;SDS011;12726;49.148;8.582;2022-10-23T13:24:01;3.53;;;0.68;;
24557;SDS011;12726;49.148;8.582;2022-10-23T13:26:47;0.77;;;0.68;;
24557;SDS011;12726;49.148;8.582;2022-10-23T13:29:33;1.70;;;0.68;;
24557;SDS011;12726;49.148;8.582;2022-10-23T13:32:20;1.25;;;0.50;;
24557;SDS011;12726;49.148;8.582;2022-10-23T13:35:18;0.63;;;0.50;;
24557;SDS011;12726;49.148;8.582;2022-10-23T13:38:08;2.17;;;0.40;;
24557;SDS011;12726;49.148;8.582;2022-10-23T13:40:54;2.25;;;0.50;;
24557;SDS011;12726;49.148;8.582;2022-10-23T13:43:40;1.02;;;0.70;;
24557;SDS011;12726;49.148;8.582;2022-10-23T13:46:27;1.35;;;0.73;;
24557;SDS011;12726;49.148;8.582;2022-10-23T13:49:13;0.82;;;0.30;;
24557;SDS011;12726;49.148;8.582;2022-10-23T13:51:58;0.88;;;0.63;;
24557;SDS011;12726;49.148;8.582;2022-10-23T13:54:44;1.52;;;0.50;;
24557;SDS011;12726;49.148;8.582;2022-10-23T13:57:29;2.28;;;0.43;;
24557;SDS011;12726;49.148;8.582;2022-10-23T14:00:15;1.67;;;0.52;;
24557;SDS011;12726;49.148;8.582;2022-10-23T14:03:02;3.55;;;1.02;;
24557;SDS011;12726;49.148;8.582;2022-10-23T14:05:47;1.98;;;0.50;;
24557;SDS011;12726;49.148;8.582;2022-10-23T14:08:33;3.28;;;0.57;;
24557;SDS011;12726;49.148;8.582;2022-10-23T14:11:18;3.78;;;0.75;;
24557;SDS011;12726;49.148;8.582;2022-10-23T14:14:04;1.55;;;0.57;;
24557;SDS011;12726;49.148;8.582;2022-10-23T14:16:50;1.05;;;0.70;;
24557;SDS011;12726;49.148;8.582;2022-10-23T14:19:36;1.55;;;0.45;;
24557;SDS011;12726;49.148;8.582;2022-10-23T14:22:22;1.80;;;0.63;;
24557;SDS011;12726;49.148;8.582;2022-10-23T14:25:07;2.65;;;0.50;;
24557;SDS011;12726;49.148;8.582;2022-10-23T14:27:53;2.08;;;0.45;;
24557;SDS011;12726;49.148;8.582;2022-10-23T14:30:39;0.55;;;0.55;;
24557;SDS011;12726;49.148;8.582;2022-10-23T14:33:24;1.02;;;0.60;;
24557;SDS011;12726;49.148;8.582;2022-10-23T14:36:11;2.63;;;0.40;;
24557;SDS011;12726;49.148;8.582;2022-10-23T14:38:57;5.20;;;0.70;;
24557;SDS011;12726;49.148;8.582;2022-10-23T14:41:43;1.05;;;0.70;;
24557;SDS011;12726;49.148;8.582;2022-10-23T14:44:28;0.50;;;0.40;;
24557;SDS011;12726;49.148;8.582;2022-10-23T14:47:14;1.15;;;0.50;;
24557;SDS011;12726;49.148;8.582;2022-10-23T14:49:59;0.90;;;0.70;;
24557;SDS011;12726;49.148;8.582;2022-10-23T14:52:46;2.50;;;0.55;;
24557;SDS011;12726;49.148;8.582;2022-10-23T14:55:31;0.82;;;0.50;;
24557;SDS011;12726;49.148;8.582;2022-10-23T14:58:17;1.35;;;0.47;;
24557;SDS011;12726;49.148;8.582;2022-10-23T15:01:06;2.20;;;0.70;;
24557;SDS011;12726;49.148;8.582;2022-10-23T15:03:52;1.50;;;0.77;;
24557;SDS011;12726;49.148;8.582;2022-10-23T15:06:38;6.72;;;0.93;;
24557;SDS011;12726;49.148;8.582;2022-10-23T15:09:32;3.13;;;0.63;;
24557;SDS011;12726;49.148;8.582;2022-10-23T15:12:25;1.40;;;0.52;;
24557;SDS011;12726;49.148;8.582;2022-10-23T15:15:10;7.20;;;0.80;;
24557;SDS011;12726;49.148;8.582;2022-10-23T15:17:56;1.70;;;0.57;;
24557;SDS011;12726;49.148;8.582;2022-10-23T15:20:41;3.58;;;0.82;;
24557;SDS011;12726;49.148;8.582;2022-10-23T15:23:27;2.65;;;1.10;;
24557;SDS011;12726;49.148;8.582;2022-10-23T15:26:14;4.97;;;1.25;;
24557;SDS011;12726;49.148;8.582;2022-10-23T15:29:03;1.60;;;0.73;;
24557;SDS011;12726;49.148;8.582;2022-10-23T15:31:51;3.95;;;1.10;;
24557;SDS011;12726;49.148;8.582;2022-10-23T15:34:37;0.77;;;0.70;;
24557;SDS011;12726;49.148;8.582;2022-10-23T15:37:25;5.57;;;0.80;;
24557;SDS011;12726;49.148;8.582;2022-10-23T15:40:11;6.68;;;0.95;;
24557;SDS011;12726;49.148;8.582;2022-10-23T15:42:57;2.70;;;0.93;;
24557;SDS011;12726;49.148;8.582;2022-10-23T15:45:42;3.65;;;1.10;;
24557;SDS011;12726;49.148;8.582;2022-10-23T15:48:28;2.42;;;1.10;;
24557;SDS011;12726;49.148;8.582;2022-10-23T15:51:13;3.05;;;1.10;;
24557;SDS011;12726;49.148;8.582;2022-10-23T15:53:59;4.05;;;1.40;;
24557;SDS011;12726;49.148;8.582;2022-10-23T15:56:44;6.72;;;1.20;;
24557;SDS011;12726;49.148;8.582;2022-10-23T15:59:32;2.70;;;1.33;;
24557;SDS011;12726;49.148;8.582;2022-10-23T16:02:17;1.67;;;0.80;;
24557;SDS011;12726;49.148;8.582;2022-10-23T16:05:03;2.00;;;0.80;;
24557;SDS011;12726;49.148;8.582;2022-10-23T16:07:49;1.83;;;0.68;;
24557;SDS011;12726;49.148;8.582;2022-10-23T16:10:37;1.88;;;0.85;;
24557;SDS011;12726;49.148;8.582;2022-10-23T16:13:23;6.07;;;2.33;;
24557;SDS011;12726;49.148;8.582;2022-10-23T16:16:10;4.22;;;2.38;;
24557;SDS011;12726;49.148;8.582;2022-10-23T16:18:57;3.75;;;2.17;;
24557;SDS011;12726;49.148;8.582;2022-10-23T16:21:43;6.68;;;2.33;;
24557;SDS011;12726;49.148;8.582;2022-10-23T16:24:28;4.32;;;1.52;;
24557;SDS011;12726;49.148;8.582;2022-10-23T16:27:14;2.92;;;2.15;;
24557;SDS011;12726;49.148;8.582;2022-10-23T16:29:59;4.72;;;1.83;;
24557;SDS011;12726;49.148;8.582;2022-10-23T16:32:46;7.43;;;1.13;;
24557;SDS011;12726;49.148;8.582;2022-10-23T16:35:32;2.42;;;1.13;;
24557;SDS011;12726;49.148;8.582;2022-10-23T16:38:17;4.72;;;0.80;;
24557;SDS011;12726;49.148;8.582;2022-10-23T16:41:03;2.33;;;1.00;;
24557;SDS011;12726;49.148;8.582;2022-10-23T16:43:49;2.13;;;0.82;;
24557;SDS011;12726;49.148;8.582;2022-10-23T16:46:34;3.55;;;1.00;;
24557;SDS011;12726;49.148;8.582;2022-10-23T16:49:20;1.90;;;1.08;;
24557;SDS011;12726;49.148;8.582;2022-10-23T16:52:06;4.63;;;1.00;;
24557;SDS011;12726;49.148;8.582;2022-10-23T16:54:51;2.75;;;0.80;;
24557;SDS011;12726;49.148;8.582;2022-10-23T16:57:36;1.63;;;1.10;;
24557;SDS011;12726;49.148;8.582;2022-10-23T17:00:22;4.57;;;0.80;;
24557;SDS011;12726;49.148;8.582;2022-10-23T17:03:07;7.07;;;1.30;;
24557;SDS011;12726;49.148;8.582;2022-10-23T17:05:54;3.28;;;0.90;;
24557;SDS011;12726;49.148;8.582;2022-10-23T17:08:43;3.05;;;1.20;;
24557;SDS011;12726;49.148;8.582;2022-10-23T17:11:30;5.13;;;1.23;;
24557;SDS011;12726;49.148;8.582;2022-10-23T17:14:17;2.58;;;1.00;;
24557;SDS011;12726;49.148;8.582;2022-10-23T17:17:03;2.55;;;1.48;;
24557;SDS011;12726;49.148;8.582;2022-10-23T17:19:49;8.60;;;1.60;;
24557;SDS011;12726;49.148;8.582;2022-10-23T17:22:36;3.70;;;1.58;;